Time;durP1;ratioP1;P1;durP2;ratioP2;P2;SDS_P1;SDS_P2;PMS_P1;PMS_P2;Temp;Humidity;BMP_temperature;BMP_pressure;BME280_temperature;BME280_humidity;BME280_pressure;Samples;Min_cycle;Max_cycle;Signal;HPM_P1;HPM_P2
2022/07/06 00:00:40;;;;;;;10.00;4.30;;;;;;;;;;4987748;28;20092;-68
2022/07/06 00:03:06;;;;;;;7.23;4.10;;;;;;;;;;4986940;28;20750;-68
2022/07/06 00:05:31;;;;;;;8.90;4.33;;;;;;;;;;4991109;28;20042;-67
2022/07/06 00:07:56;;;;;;;9.93;4.25;;;;;;;;;;4994755;28;20302;-68
2022/07/06 00:10:21;;;;;;;7.40;4.20;;;;;;;;;;4983961;28;20034;-68
2022/07/06 00:12:46;;;;;;;13.13;4.45;;;;;;;;;;4985173;28;20272;-67
2022/07/06 00:15:11;;;;;;;8.60;4.40;;;;;;;;;;4986443;28;20125;-67
2022/07/06 00:17:36;;;;;;;10.23;4.53;;;;;;;;;;4986172;28;20589;-67
2022/07/06 00:20:02;;;;;;;8.57;4.47;;;;;;;;;;4988884;28;20279;-68
2022/07/06 00:22:27;;;;;;;12.07;4.70;;;;;;;;;;4982598;28;20276;-68
2022/07/06 00:24:52;;;;;;;16.52;4.97;;;;;;;;;;4989307;28;20101;-68
2022/07/06 00:27:17;;;;;;;13.43;5.05;;;;;;;;;;4989902;28;20062;-67
2022/07/06 00:29:43;;;;;;;10.05;5.00;;;;;;;;;;4988846;28;20030;-67
2022/07/06 00:32:10;;;;;;;11.63;5.20;;;;;;;;;;4981825;28;20035;-68
2022/07/06 00:34:35;;;;;;;12.60;5.63;;;;;;;;;;4984077;28;20026;-67
2022/07/06 00:37:00;;;;;;;14.43;4.97;;;;;;;;;;4997406;28;20101;-68
2022/07/06 00:39:28;;;;;;;11.70;5.33;;;;;;;;;;4986122;28;20276;-68
2022/07/06 00:41:54;;;;;;;10.05;4.95;;;;;;;;;;4985919;28;20295;-67
2022/07/06 00:44:19;;;;;;;22.90;5.53;;;;;;;;;;4984968;28;20018;-67
2022/07/06 00:46:44;;;;;;;13.40;5.15;;;;;;;;;;4988466;28;20639;-67
2022/07/06 00:50:13;;;;;;;8.95;4.80;;;;;;;;;;4987914;28;20030;-67
2022/07/06 00:51:54;;;;;;;12.07;5.38;;;;;;;;;;4981003;28;20738;-67
2022/07/06 00:54:20;;;;;;;13.38;5.20;;;;;;;;;;4984443;28;20114;-68
2022/07/06 00:56:45;;;;;;;12.77;6.15;;;;;;;;;;5000616;28;20072;-67
2022/07/06 00:59:10;;;;;;;13.23;5.78;;;;;;;;;;4997252;28;20057;-67
2022/07/06 01:01:35;;;;;;;12.90;6.38;;;;;;;;;;4987232;28;20479;-67
2022/07/06 01:04:01;;;;;;;16.30;6.07;;;;;;;;;;4984141;28;20081;-67
2022/07/06 01:06:26;;;;;;;12.50;6.22;;;;;;;;;;4990487;28;20260;-67
2022/07/06 01:08:51;;;;;;;16.17;5.83;;;;;;;;;;4986482;28;20030;-67
2022/07/06 01:11:18;;;;;;;13.85;7.03;;;;;;;;;;4983636;28;20284;-67
2022/07/06 01:13:43;;;;;;;10.80;5.53;;;;;;;;;;4995509;28;20117;-67
2022/07/06 01:16:08;;;;;;;16.10;6.40;;;;;;;;;;4986633;28;20034;-67
2022/07/06 01:18:33;;;;;;;12.43;6.18;;;;;;;;;;4989437;28;20042;-67
2022/07/06 01:21:24;;;;;;;16.83;5.90;;;;;;;;;;4986731;28;20139;-67
2022/07/06 01:23:50;;;;;;;17.65;6.43;;;;;;;;;;4981607;28;20863;-67
2022/07/06 01:26:20;;;;;;;20.67;5.95;;;;;;;;;;4986848;28;20022;-67
2022/07/06 01:28:48;;;;;;;15.93;6.63;;;;;;;;;;4984010;28;20120;-67
2022/07/06 01:31:15;;;;;;;14.82;6.53;;;;;;;;;;5000968;28;20392;-67
2022/07/06 01:33:40;;;;;;;11.43;5.68;;;;;;;;;;4983956;28;20030;-67
2022/07/06 01:36:05;;;;;;;12.93;6.47;;;;;;;;;;4981558;28;20031;-67
2022/07/06 01:38:30;;;;;;;11.73;6.17;;;;;;;;;;4988662;28;20299;-67
2022/07/06 01:40:56;;;;;;;11.07;5.67;;;;;;;;;;4986614;28;20290;-67
2022/07/06 01:43:21;;;;;;;16.40;5.97;;;;;;;;;;4981715;28;20709;-67
2022/07/06 01:45:46;;;;;;;12.10;5.50;;;;;;;;;;4983947;28;20357;-67
2022/07/06 01:48:11;;;;;;;13.60;6.28;;;;;;;;;;4985249;28;20750;-67
2022/07/06 01:50:36;;;;;;;15.23;6.43;;;;;;;;;;4984047;28;20077;-67
2022/07/06 01:53:02;;;;;;;11.75;5.75;;;;;;;;;;4998564;28;20279;-67
2022/07/06 01:55:27;;;;;;;14.60;6.15;;;;;;;;;;4987009;28;20120;-67
2022/07/06 01:57:52;;;;;;;15.95;6.55;;;;;;;;;;4985648;28;20159;-67
2022/07/06 02:00:17;;;;;;;15.65;6.07;;;;;;;;;;4982477;28;20035;-67
2022/07/06 02:02:42;;;;;;;10.87;5.50;;;;;;;;;;4984349;28;20037;-67
2022/07/06 02:05:07;;;;;;;12.48;5.75;;;;;;;;;;4989875;28;20277;-67
2022/07/06 02:07:33;;;;;;;10.40;5.38;;;;;;;;;;4988976;28;20042;-67
2022/07/06 02:09:58;;;;;;;13.57;7.25;;;;;;;;;;4984581;28;20025;-67
2022/07/06 02:12:23;;;;;;;11.80;5.78;;;;;;;;;;4984560;28;20600;-67
2022/07/06 02:14:48;;;;;;;13.83;6.57;;;;;;;;;;4981282;28;20373;-67
2022/07/06 02:17:13;;;;;;;13.23;5.93;;;;;;;;;;4983605;28;20283;-67
2022/07/06 02:19:38;;;;;;;13.25;5.82;;;;;;;;;;4979514;28;20264;-67
2022/07/06 02:22:04;;;;;;;10.40;5.13;;;;;;;;;;4980744;28;20109;-67
2022/07/06 02:24:29;;;;;;;11.53;5.43;;;;;;;;;;4981931;28;20279;-67
2022/07/06 02:26:54;;;;;;;12.82;5.50;;;;;;;;;;4984697;28;20284;-67
2022/07/06 02:29:20;;;;;;;9.70;5.40;;;;;;;;;;4980179;28;20488;-67
2022/07/06 02:31:45;;;;;;;10.85;5.50;;;;;;;;;;4988803;28;20064;-67
2022/07/06 02:34:10;;;;;;;13.67;6.07;;;;;;;;;;4986984;28;20030;-67
2022/07/06 02:36:35;;;;;;;9.27;5.13;;;;;;;;;;4982907;28;20272;-67
2022/07/06 02:39:00;;;;;;;10.00;5.07;;;;;;;;;;4984790;28;20310;-66
2022/07/06 02:41:25;;;;;;;12.50;5.90;;;;;;;;;;4986887;28;20764;-66
2022/07/06 02:43:51;;;;;;;10.52;5.13;;;;;;;;;;4981438;28;20283;-67
2022/07/06 02:46:16;;;;;;;13.30;5.47;;;;;;;;;;4986979;28;20027;-67
2022/07/06 02:48:41;;;;;;;9.93;4.87;;;;;;;;;;4987066;28;20749;-67
2022/07/06 02:51:06;;;;;;;9.88;4.60;;;;;;;;;;4986065;28;20282;-67
2022/07/06 02:53:31;;;;;;;10.27;5.10;;;;;;;;;;4988733;28;20548;-67
2022/07/06 02:55:56;;;;;;;10.23;5.22;;;;;;;;;;4987668;28;20283;-67
2022/07/06 02:58:22;;;;;;;12.70;5.40;;;;;;;;;;4992587;28;20042;-67
2022/07/06 03:00:47;;;;;;;12.52;4.93;;;;;;;;;;4987729;28;20117;-67
2022/07/06 03:03:12;;;;;;;9.60;5.70;;;;;;;;;;4985254;28;20025;-67
2022/07/06 03:05:37;;;;;;;10.23;5.17;;;;;;;;;;4986176;28;20065;-67
2022/07/06 03:08:02;;;;;;;11.17;5.47;;;;;;;;;;4985696;28;20281;-67
2022/07/06 03:10:27;;;;;;;12.55;5.88;;;;;;;;;;4983727;28;20276;-67
2022/07/06 03:12:53;;;;;;;9.48;4.57;;;;;;;;;;4984004;28;20030;-67
2022/07/06 03:15:18;;;;;;;9.45;5.13;;;;;;;;;;4982932;28;20131;-67
2022/07/06 03:17:43;;;;;;;11.87;6.17;;;;;;;;;;4983491;28;20038;-67
2022/07/06 03:20:08;;;;;;;10.15;5.25;;;;;;;;;;4997535;28;20269;-67
2022/07/06 03:22:34;;;;;;;10.88;4.63;;;;;;;;;;4986424;28;20460;-67
2022/07/06 03:24:59;;;;;;;14.90;5.10;;;;;;;;;;4986886;28;20041;-67
2022/07/06 03:27:24;;;;;;;13.05;5.43;;;;;;;;;;4987110;28;20030;-67
2022/07/06 03:29:49;;;;;;;10.03;4.87;;;;;;;;;;4983732;28;20026;-67
2022/07/06 03:32:14;;;;;;;13.23;6.30;;;;;;;;;;4987399;28;20306;-67
2022/07/06 03:34:39;;;;;;;13.17;6.43;;;;;;;;;;4985970;28;20050;-67
2022/07/06 03:37:05;;;;;;;12.80;6.40;;;;;;;;;;4989698;28;20282;-67
2022/07/06 03:39:31;;;;;;;11.02;5.13;;;;;;;;;;4983496;28;20276;-67
2022/07/06 03:41:56;;;;;;;14.50;5.13;;;;;;;;;;4987334;28;20416;-67
2022/07/06 03:44:21;;;;;;;15.67;5.10;;;;;;;;;;4983501;28;20410;-67
2022/07/06 03:46:46;;;;;;;14.88;5.65;;;;;;;;;;4986257;28;20279;-67
2022/07/06 03:49:11;;;;;;;7.97;5.05;;;;;;;;;;4986192;28;20423;-67
2022/07/06 03:51:37;;;;;;;9.60;4.72;;;;;;;;;;4985617;28;20057;-67
2022/07/06 03:54:02;;;;;;;9.18;4.78;;;;;;;;;;4981498;28;20118;-67
2022/07/06 03:56:28;;;;;;;14.07;5.60;;;;;;;;;;4989168;28;20349;-66
2022/07/06 03:58:53;;;;;;;8.88;5.03;;;;;;;;;;4986609;28;20031;-67
2022/07/06 04:01:19;;;;;;;9.57;5.30;;;;;;;;;;4988363;28;20030;-67
2022/07/06 04:03:44;;;;;;;11.50;4.95;;;;;;;;;;4984053;28;20026;-67
2022/07/06 04:06:09;;;;;;;8.02;4.72;;;;;;;;;;4983028;28;20465;-67
2022/07/06 04:08:35;;;;;;;12.25;5.00;;;;;;;;;;4984607;28;20029;-68
2022/07/06 04:11:00;;;;;;;8.37;4.80;;;;;;;;;;4983412;28;20432;-67
2022/07/06 04:13:25;;;;;;;20.08;5.53;;;;;;;;;;4982465;28;20026;-67
2022/07/06 04:15:50;;;;;;;8.52;4.03;;;;;;;;;;4981273;28;20054;-67
2022/07/06 04:18:16;;;;;;;6.47;4.20;;;;;;;;;;4982320;28;20156;-67
2022/07/06 04:20:41;;;;;;;9.03;4.57;;;;;;;;;;4980363;28;20073;-67
2022/07/06 04:23:06;;;;;;;9.90;4.60;;;;;;;;;;4972553;28;20045;-67
2022/07/06 04:25:31;;;;;;;6.00;3.93;;;;;;;;;;4984426;28;20739;-66
2022/07/06 04:27:56;;;;;;;7.40;3.80;;;;;;;;;;4979688;28;20030;-67
2022/07/06 04:30:21;;;;;;;11.00;4.53;;;;;;;;;;4986404;28;20121;-67
2022/07/06 04:32:47;;;;;;;7.03;3.80;;;;;;;;;;4992053;28;20423;-67
2022/07/06 04:35:12;;;;;;;5.93;3.72;;;;;;;;;;4992184;28;20440;-67
2022/07/06 04:37:37;;;;;;;6.63;4.00;;;;;;;;;;4991022;28;20125;-67
2022/07/06 04:40:03;;;;;;;8.75;3.78;;;;;;;;;;4985756;28;20030;-67
2022/07/06 04:42:28;;;;;;;8.70;4.20;;;;;;;;;;4984406;28;20473;-67
2022/07/06 04:44:53;;;;;;;7.33;4.33;;;;;;;;;;4981860;28;20110;-67
2022/07/06 04:47:18;;;;;;;5.07;4.00;;;;;;;;;;5003339;28;20030;-66
2022/07/06 04:49:43;;;;;;;6.37;3.73;;;;;;;;;;4987967;28;20060;-67
2022/07/06 04:52:08;;;;;;;6.72;4.22;;;;;;;;;;4985874;28;20318;-67
2022/07/06 04:54:34;;;;;;;12.33;4.27;;;;;;;;;;4989891;28;20030;-67
2022/07/06 04:56:59;;;;;;;8.27;4.43;;;;;;;;;;5003090;28;20824;-67
2022/07/06 04:59:24;;;;;;;8.67;3.77;;;;;;;;;;4982931;28;20029;-67
2022/07/06 05:01:49;;;;;;;6.07;3.80;;;;;;;;;;4991106;28;20996;-67
2022/07/06 05:04:16;;;;;;;8.55;3.67;;;;;;;;;;4989607;28;20861;-67
2022/07/06 05:06:42;;;;;;;6.30;3.70;;;;;;;;;;4994054;28;20026;-67
2022/07/06 05:09:07;;;;;;;6.20;3.70;;;;;;;;;;4990276;28;20064;-67
2022/07/06 05:11:32;;;;;;;5.43;3.03;;;;;;;;;;4992134;28;20326;-67
2022/07/06 05:13:57;;;;;;;4.07;3.60;;;;;;;;;;4988137;28;20847;-67
2022/07/06 05:16:23;;;;;;;6.43;3.85;;;;;;;;;;4990817;28;20314;-67
2022/07/06 05:18:48;;;;;;;7.35;3.50;;;;;;;;;;4990591;28;20030;-67
2022/07/06 05:21:13;;;;;;;6.20;3.90;;;;;;;;;;4992412;28;20034;-67
2022/07/06 05:23:38;;;;;;;9.67;4.40;;;;;;;;;;4995420;28;20276;-67
2022/07/06 05:26:04;;;;;;;5.32;4.05;;;;;;;;;;4990144;28;20622;-67
2022/07/06 05:28:29;;;;;;;11.25;4.10;;;;;;;;;;4991956;28;20392;-67
2022/07/06 05:30:54;;;;;;;7.40;3.87;;;;;;;;;;4994116;28;20072;-67
2022/07/06 05:33:19;;;;;;;7.93;4.22;;;;;;;;;;4990758;28;20372;-67
2022/07/06 05:35:44;;;;;;;11.23;4.20;;;;;;;;;;4993330;28;20025;-67
2022/07/06 05:38:10;;;;;;;6.10;4.15;;;;;;;;;;4992490;28;20754;-67
2022/07/06 05:40:35;;;;;;;4.55;3.97;;;;;;;;;;4994984;28;20026;-67
2022/07/06 05:43:00;;;;;;;6.97;3.80;;;;;;;;;;4986828;28;20046;-67
2022/07/06 05:45:25;;;;;;;9.27;4.35;;;;;;;;;;4984352;28;20381;-67
2022/07/06 05:50:34;;;;;;;6.32;3.50;;;;;;;;;;4982203;28;20287;-68
2022/07/06 05:53:01;;;;;;;8.57;3.70;;;;;;;;;;4982488;28;20038;-67
2022/07/06 05:55:26;;;;;;;10.60;3.45;;;;;;;;;;4982278;28;20034;-67
2022/07/06 05:57:53;;;;;;;8.20;3.28;;;;;;;;;;4984288;28;20392;-68
2022/07/06 06:00:19;;;;;;;5.50;3.08;;;;;;;;;;4987141;28;20018;-67
2022/07/06 06:02:44;;;;;;;4.18;3.67;;;;;;;;;;4989666;28;20092;-67
2022/07/06 06:05:10;;;;;;;8.00;3.60;;;;;;;;;;4985182;28;20035;-67
2022/07/06 06:07:36;;;;;;;7.43;3.13;;;;;;;;;;4988124;28;20026;-67
2022/07/06 06:10:03;;;;;;;6.43;3.33;;;;;;;;;;4984185;28;20045;-67
2022/07/06 06:12:28;;;;;;;6.75;3.15;;;;;;;;;;5001272;28;20068;-67
2022/07/06 06:14:53;;;;;;;5.37;3.27;;;;;;;;;;4984445;28;20025;-69
2022/07/06 06:17:18;;;;;;;5.87;2.73;;;;;;;;;;4986276;28;20277;-68
2022/07/06 06:19:44;;;;;;;3.35;3.03;;;;;;;;;;4989255;28;20294;-68
2022/07/06 06:22:09;;;;;;;5.75;3.42;;;;;;;;;;4984771;28;20042;-67
2022/07/06 06:24:34;;;;;;;14.48;3.70;;;;;;;;;;4984499;28;20027;-67
2022/07/06 06:26:59;;;;;;;7.23;3.30;;;;;;;;;;4987794;28;20457;-68
2022/07/06 06:29:24;;;;;;;5.87;3.03;;;;;;;;;;4987603;28;20279;-67
2022/07/06 06:31:50;;;;;;;5.50;2.90;;;;;;;;;;4982525;28;20290;-67
2022/07/06 06:34:15;;;;;;;4.88;2.88;;;;;;;;;;4987779;28;20041;-67
2022/07/06 06:36:40;;;;;;;3.43;2.10;;;;;;;;;;4986125;28;20022;-67
2022/07/06 06:39:05;;;;;;;7.93;2.00;;;;;;;;;;4992526;28;20271;-67
2022/07/06 06:41:30;;;;;;;3.73;1.60;;;;;;;;;;4987636;28;20167;-67
2022/07/06 06:43:56;;;;;;;1.80;1.60;;;;;;;;;;4982534;28;20022;-67
2022/07/06 06:46:21;;;;;;;4.50;1.53;;;;;;;;;;4981863;28;20453;-67
2022/07/06 06:48:46;;;;;;;6.03;1.43;;;;;;;;;;4987462;28;20061;-67
2022/07/06 06:51:11;;;;;;;4.07;1.57;;;;;;;;;;4988103;28;20381;-67
2022/07/06 06:53:36;;;;;;;4.93;1.85;;;;;;;;;;4984993;28;20034;-67
2022/07/06 06:56:01;;;;;;;7.32;2.45;;;;;;;;;;4981356;28;20037;-66
2022/07/06 06:58:27;;;;;;;3.38;1.90;;;;;;;;;;4984511;28;20027;-67
2022/07/06 07:00:52;;;;;;;1.70;1.60;;;;;;;;;;4977427;28;20118;-67
2022/07/06 07:03:17;;;;;;;4.80;1.80;;;;;;;;;;4984032;28;20034;-69
2022/07/06 07:05:42;;;;;;;4.07;1.90;;;;;;;;;;4981355;28;20276;-67
2022/07/06 07:08:08;;;;;;;4.67;2.23;;;;;;;;;;4987175;28;20077;-72
2022/07/06 07:10:33;;;;;;;6.00;2.40;;;;;;;;;;4982525;28;20413;-67
2022/07/06 07:12:58;;;;;;;4.00;1.80;;;;;;;;;;4981767;28;20615;-67
2022/07/06 07:15:23;;;;;;;6.07;1.65;;;;;;;;;;4983463;28;20817;-68
2022/07/06 07:17:48;;;;;;;3.33;1.83;;;;;;;;;;4987318;28;20928;-67
2022/07/06 07:20:13;;;;;;;5.90;1.70;;;;;;;;;;4987156;28;20489;-68
2022/07/06 07:22:39;;;;;;;5.88;1.60;;;;;;;;;;4983758;28;20296;-68
2022/07/06 07:25:05;;;;;;;3.37;1.60;;;;;;;;;;4986414;28;20034;-68
2022/07/06 07:27:30;;;;;;;1.80;1.50;;;;;;;;;;4980690;28;20425;-69
2022/07/06 07:29:55;;;;;;;4.03;1.40;;;;;;;;;;4977509;28;20109;-69
2022/07/06 07:32:20;;;;;;;4.37;1.20;;;;;;;;;;4982685;28;20082;-70
2022/07/06 07:34:45;;;;;;;1.20;0.80;;;;;;;;;;4982732;28;20027;-70
2022/07/06 07:37:11;;;;;;;2.33;0.73;;;;;;;;;;4978949;28;20275;-69
2022/07/06 07:39:36;;;;;;;2.33;0.83;;;;;;;;;;4979810;28;20742;-68
2022/07/06 07:42:01;;;;;;;4.25;1.33;;;;;;;;;;4980089;28;20038;-69
2022/07/06 07:44:27;;;;;;;5.03;1.30;;;;;;;;;;4980181;28;20057;-70
2022/07/06 07:46:52;;;;;;;3.88;1.20;;;;;;;;;;4979912;28;20034;-70
2022/07/06 07:49:18;;;;;;;3.53;1.40;;;;;;;;;;4989207;28;20030;-71
2022/07/06 07:51:43;;;;;;;7.80;1.50;;;;;;;;;;4984522;28;20027;-70
2022/07/06 07:54:09;;;;;;;2.40;1.07;;;;;;;;;;4979643;28;20530;-70
2022/07/06 07:56:34;;;;;;;6.43;1.33;;;;;;;;;;4981308;28;20026;-69
2022/07/06 07:58:59;;;;;;;2.53;1.10;;;;;;;;;;4980863;28;20077;-69
2022/07/06 08:01:24;;;;;;;2.43;0.80;;;;;;;;;;4982101;28;20491;-71
2022/07/06 08:03:49;;;;;;;6.17;1.43;;;;;;;;;;4971849;28;20117;-69
2022/07/06 08:06:14;;;;;;;2.63;1.00;;;;;;;;;;4987526;28;20511;-69
2022/07/06 08:08:40;;;;;;;3.38;1.20;;;;;;;;;;4981278;28;20738;-69
2022/07/06 08:11:05;;;;;;;2.63;1.20;;;;;;;;;;4980237;28;20092;-68
2022/07/06 08:13:30;;;;;;;7.03;1.35;;;;;;;;;;4983846;28;20061;-69
2022/07/06 08:15:55;;;;;;;4.03;1.10;;;;;;;;;;4975735;28;20120;-69
2022/07/06 08:18:20;;;;;;;3.50;1.20;;;;;;;;;;4987827;28;20046;-69
2022/07/06 08:20:46;;;;;;;4.33;1.03;;;;;;;;;;4996761;28;20091;-69
2022/07/06 08:23:11;;;;;;;8.03;1.83;;;;;;;;;;4989076;28;20030;-68
2022/07/06 08:25:36;;;;;;;7.03;1.30;;;;;;;;;;4982843;28;20270;-68
2022/07/06 08:28:01;;;;;;;2.60;1.10;;;;;;;;;;4987417;28;20433;-69
2022/07/06 08:30:26;;;;;;;3.87;1.17;;;;;;;;;;4989208;28;20281;-68
2022/07/06 08:32:52;;;;;;;7.43;1.10;;;;;;;;;;4992986;28;20275;-69
2022/07/06 08:35:17;;;;;;;4.65;1.60;;;;;;;;;;4987863;28;20267;-73
2022/07/06 08:37:42;;;;;;;2.73;0.80;;;;;;;;;;4982385;28;20036;-68
2022/07/06 08:40:09;;;;;;;1.55;0.80;;;;;;;;;;4983039;28;20272;-68
2022/07/06 08:42:35;;;;;;;2.25;0.80;;;;;;;;;;4982831;28;20152;-68
2022/07/06 08:45:01;;;;;;;6.85;1.00;;;;;;;;;;4982261;28;20109;-70
2022/07/06 08:47:27;;;;;;;5.93;1.10;;;;;;;;;;4982579;28;20073;-69
2022/07/06 08:49:53;;;;;;;1.98;0.85;;;;;;;;;;4980361;28;20030;-69
2022/07/06 08:52:18;;;;;;;2.10;0.82;;;;;;;;;;4987112;28;20057;-68
2022/07/06 08:54:43;;;;;;;1.20;1.10;;;;;;;;;;4979588;28;20041;-71
2022/07/06 08:57:08;;;;;;;0.97;0.93;;;;;;;;;;4984471;28;20030;-68
2022/07/06 08:59:34;;;;;;;3.53;0.90;;;;;;;;;;4983370;28;20412;-68
2022/07/06 09:02:00;;;;;;;1.55;0.65;;;;;;;;;;4985393;28;20034;-68
2022/07/06 09:04:25;;;;;;;2.83;0.70;;;;;;;;;;4985175;28;20189;-69
2022/07/06 09:06:50;;;;;;;2.08;0.50;;;;;;;;;;4985676;28;20022;-68
2022/07/06 09:09:19;;;;;;;4.13;0.90;;;;;;;;;;4984686;28;20027;-70
2022/07/06 09:11:44;;;;;;;4.70;1.10;;;;;;;;;;4985688;28;20243;-69
2022/07/06 09:14:09;;;;;;;3.72;0.80;;;;;;;;;;4984613;28;20034;-68
2022/07/06 09:16:35;;;;;;;1.50;0.60;;;;;;;;;;4979491;28;20026;-69
2022/07/06 09:19:00;;;;;;;5.13;0.70;;;;;;;;;;4984416;28;20033;-73
2022/07/06 09:21:31;;;;;;;0.80;0.50;;;;;;;;;;4987168;28;20029;-68
2022/07/06 09:23:57;;;;;;;1.23;0.43;;;;;;;;;;4982723;28;20026;-74
2022/07/06 09:26:23;;;;;;;0.93;0.52;;;;;;;;;;4983384;28;20026;-67
2022/07/06 09:28:48;;;;;;;2.38;0.60;;;;;;;;;;4987678;28;20022;-71
2022/07/06 09:31:14;;;;;;;2.37;0.90;;;;;;;;;;4991142;28;20035;-70
2022/07/06 09:33:52;;;;;;;0.82;0.60;;;;;;;;;;4984001;28;20061;-68
2022/07/06 09:36:26;;;;;;;2.92;0.75;;;;;;;;;;4984326;28;20037;-68
2022/07/06 09:38:51;;;;;;;3.03;0.82;;;;;;;;;;4982462;28;20117;-69
2022/07/06 09:41:29;;;;;;;3.40;0.70;;;;;;;;;;4982694;28;20035;-68
2022/07/06 09:46:37;;;;;;;5.18;0.98;;;;;;;;;;5872133;23;20081;-68
2022/07/06 09:49:02;;;;;;;2.35;1.08;;;;;;;;;;4990283;28;20105;-68
2022/07/06 09:51:30;;;;;;;5.93;1.07;;;;;;;;;;4997713;28;20056;-68
2022/07/06 09:53:57;;;;;;;3.22;0.77;;;;;;;;;;5000227;28;20275;-68
2022/07/06 09:56:34;;;;;;;2.33;1.00;;;;;;;;;;4997774;28;20018;-69
2022/07/06 09:59:00;;;;;;;2.67;0.80;;;;;;;;;;5001845;28;20025;-68
2022/07/06 10:01:26;;;;;;;4.30;0.80;;;;;;;;;;5002929;28;20032;-67
2022/07/06 10:03:51;;;;;;;4.68;0.80;;;;;;;;;;5003258;28;20021;-68
2022/07/06 10:06:17;;;;;;;2.83;1.10;;;;;;;;;;5000994;28;20029;-69
2022/07/06 10:08:43;;;;;;;4.03;0.77;;;;;;;;;;5002307;28;20684;-69
2022/07/06 10:11:13;;;;;;;2.58;1.20;;;;;;;;;;4999885;28;20442;-68
2022/07/06 10:13:38;;;;;;;1.55;0.68;;;;;;;;;;5002769;28;20022;-69
2022/07/06 10:16:04;;;;;;;4.38;1.10;;;;;;;;;;5002585;28;20084;-68
2022/07/06 10:18:29;;;;;;;4.25;1.02;;;;;;;;;;5000628;28;20100;-68
2022/07/06 10:20:54;;;;;;;3.55;0.82;;;;;;;;;;4998089;28;20049;-68
2022/07/06 10:23:21;;;;;;;5.10;1.63;;;;;;;;;;4995293;28;20053;-68
2022/07/06 10:25:47;;;;;;;1.83;0.82;;;;;;;;;;5002929;28;20018;-68
2022/07/06 10:28:14;;;;;;;6.55;1.02;;;;;;;;;;5004202;28;20133;-67
2022/07/06 10:30:39;;;;;;;4.05;1.58;;;;;;;;;;5006117;28;20045;-68
2022/07/06 10:33:05;;;;;;;4.95;1.20;;;;;;;;;;5001091;28;20429;-68
2022/07/06 10:35:30;;;;;;;2.75;1.00;;;;;;;;;;4999844;28;20786;-68
2022/07/06 10:38:05;;;;;;;3.13;1.10;;;;;;;;;;4999445;28;20065;-68
2022/07/06 10:43:15;;;;;;;3.28;1.10;;;;;;;;;;5001836;28;20230;-68
2022/07/06 10:45:43;;;;;;;3.88;1.23;;;;;;;;;;4998207;28;20102;-68
2022/07/06 10:48:11;;;;;;;3.45;0.90;;;;;;;;;;4996074;28;20033;-67
2022/07/06 10:50:40;;;;;;;4.03;1.00;;;;;;;;;;5002632;28;20108;-68
2022/07/06 10:53:12;;;;;;;2.17;1.02;;;;;;;;;;4995614;28;20025;-68
2022/07/06 10:55:39;;;;;;;2.95;1.10;;;;;;;;;;5002818;28;20029;-67
2022/07/06 10:58:05;;;;;;;3.03;1.13;;;;;;;;;;4996884;28;20026;-68
2022/07/06 11:00:50;;;;;;;3.42;1.23;;;;;;;;;;4994870;28;20137;-67
2022/07/06 11:03:31;;;;;;;3.80;1.00;;;;;;;;;;4998517;28;20022;-66
2022/07/06 11:06:01;;;;;;;2.05;0.90;;;;;;;;;;4998110;28;20034;-67
2022/07/06 11:08:45;;;;;;;2.47;1.27;;;;;;;;;;4999170;28;20388;-68
2022/07/06 11:11:12;;;;;;;3.53;0.88;;;;;;;;;;4994836;28;20053;-68
2022/07/06 11:13:50;;;;;;;2.95;1.20;;;;;;;;;;4990737;28;20497;-68
2022/07/06 11:16:16;;;;;;;3.80;1.10;;;;;;;;;;4996150;28;20484;-67
2022/07/06 11:18:45;;;;;;;1.35;1.00;;;;;;;;;;4996448;28;20027;-68
2022/07/06 11:21:16;;;;;;;3.45;1.08;;;;;;;;;;4996012;28;20025;-69
2022/07/06 11:23:42;;;;;;;3.25;1.08;;;;;;;;;;4994522;28;20041;-68
2022/07/06 11:26:07;;;;;;;3.03;1.50;;;;;;;;;;4995462;28;20312;-68
2022/07/06 11:28:33;;;;;;;3.30;1.15;;;;;;;;;;4995301;28;20023;-68
2022/07/06 11:30:59;;;;;;;7.32;1.15;;;;;;;;;;5002234;28;20432;-68
2022/07/06 11:33:28;;;;;;;3.15;1.02;;;;;;;;;;4991273;28;20493;-68
2022/07/06 11:36:10;;;;;;;6.53;1.10;;;;;;;;;;4995550;28;20051;-67
2022/07/06 11:38:36;;;;;;;3.70;0.95;;;;;;;;;;4999614;28;20034;-68
2022/07/06 11:41:01;;;;;;;6.53;1.37;;;;;;;;;;5001876;28;20521;-69
2022/07/06 11:43:26;;;;;;;2.80;0.93;;;;;;;;;;5003344;28;20030;-69
2022/07/06 11:45:51;;;;;;;3.50;0.97;;;;;;;;;;5001897;28;20085;-70
2022/07/06 11:48:16;;;;;;;1.05;0.90;;;;;;;;;;5006868;28;20490;-68
2022/07/06 11:50:41;;;;;;;4.17;1.00;;;;;;;;;;5003204;28;20144;-68
2022/07/06 11:53:07;;;;;;;6.57;1.17;;;;;;;;;;5002543;28;20128;-67
2022/07/06 11:55:32;;;;;;;1.17;0.87;;;;;;;;;;4998508;28;20028;-67
2022/07/06 11:57:59;;;;;;;2.50;0.80;;;;;;;;;;5002076;28;20065;-67
2022/07/06 12:00:24;;;;;;;2.42;1.20;;;;;;;;;;5001089;28;20028;-68
2022/07/06 12:02:59;;;;;;;3.87;1.03;;;;;;;;;;5001430;28;20061;-68
2022/07/06 12:05:29;;;;;;;4.28;1.10;;;;;;;;;;5000700;28;20026;-68
2022/07/06 12:08:04;;;;;;;4.13;1.40;;;;;;;;;;5004400;28;20018;-67
2022/07/06 12:10:35;;;;;;;4.45;0.90;;;;;;;;;;5000395;28;20488;-68
2022/07/06 12:13:04;;;;;;;2.58;0.98;;;;;;;;;;4998729;28;20026;-68
2022/07/06 12:15:29;;;;;;;5.07;1.00;;;;;;;;;;5001121;28;20026;-68
2022/07/06 12:17:54;;;;;;;2.05;0.95;;;;;;;;;;5001198;28;20033;-67
2022/07/06 12:20:19;;;;;;;1.20;0.83;;;;;;;;;;5005874;28;20021;-68
2022/07/06 12:22:45;;;;;;;2.92;0.98;;;;;;;;;;5003389;28;20053;-68
2022/07/06 12:25:10;;;;;;;1.53;1.00;;;;;;;;;;5002906;28;20021;-67
2022/07/06 12:27:35;;;;;;;3.83;1.30;;;;;;;;;;5001529;28;20026;-68
2022/07/06 12:30:11;;;;;;;1.95;0.93;;;;;;;;;;5002441;28;20275;-68
2022/07/06 12:32:36;;;;;;;3.50;1.20;;;;;;;;;;5002835;28;20068;-68
2022/07/06 12:35:03;;;;;;;3.35;0.90;;;;;;;;;;5003008;28;20468;-68
2022/07/06 12:37:28;;;;;;;4.07;1.20;;;;;;;;;;5001063;28;20050;-68
2022/07/06 12:39:53;;;;;;;5.68;1.40;;;;;;;;;;5000137;28;20072;-67
2022/07/06 12:42:19;;;;;;;7.97;1.20;;;;;;;;;;4999750;28;20464;-68
2022/07/06 12:44:50;;;;;;;4.07;1.10;;;;;;;;;;4999118;28;20077;-68
2022/07/06 12:47:20;;;;;;;3.60;1.10;;;;;;;;;;5001219;28;20022;-67
2022/07/06 12:49:46;;;;;;;2.35;1.00;;;;;;;;;;4999508;28;20325;-69
2022/07/06 12:52:11;;;;;;;1.75;0.90;;;;;;;;;;4999349;28;20117;-68
2022/07/06 12:54:42;;;;;;;2.38;1.45;;;;;;;;;;5000800;28;20108;-68
2022/07/06 12:57:17;;;;;;;3.08;1.42;;;;;;;;;;4999830;28;20421;-68
2022/07/06 12:59:44;;;;;;;3.95;1.23;;;;;;;;;;5001359;28;20052;-74
2022/07/06 13:02:20;;;;;;;3.47;1.15;;;;;;;;;;5002458;28;20124;-67
2022/07/06 13:04:54;;;;;;;8.88;2.00;;;;;;;;;;5008840;28;20029;-67
2022/07/06 13:07:19;;;;;;;2.42;1.30;;;;;;;;;;5000191;28;20014;-70
2022/07/06 13:09:44;;;;;;;4.60;1.30;;;;;;;;;;5006019;28;20132;-68
2022/07/06 13:12:10;;;;;;;3.77;1.07;;;;;;;;;;5004164;28;20026;-67
2022/07/06 13:14:35;;;;;;;3.00;1.30;;;;;;;;;;5004504;28;20028;-69
2022/07/06 13:17:00;;;;;;;3.08;1.10;;;;;;;;;;5003750;28;20092;-70
2022/07/06 13:19:26;;;;;;;4.00;1.23;;;;;;;;;;5003661;28;20108;-67
2022/07/06 13:21:51;;;;;;;6.80;1.33;;;;;;;;;;4999154;28;20022;-67
2022/07/06 13:24:16;;;;;;;5.80;1.40;;;;;;;;;;4998128;28;20566;-66
2022/07/06 13:26:41;;;;;;;3.93;1.20;;;;;;;;;;5003942;28;20136;-67
2022/07/06 13:29:07;;;;;;;2.28;1.02;;;;;;;;;;4998128;28;20080;-66
2022/07/06 13:31:32;;;;;;;3.80;1.55;;;;;;;;;;5001910;28;20081;-68
2022/07/06 13:33:57;;;;;;;2.87;1.37;;;;;;;;;;5006485;28;20025;-67
2022/07/06 13:36:22;;;;;;;5.05;1.40;;;;;;;;;;5009670;28;20021;-68
2022/07/06 13:38:48;;;;;;;4.95;1.30;;;;;;;;;;5002130;28;20488;-69
2022/07/06 13:41:13;;;;;;;5.47;1.92;;;;;;;;;;5005519;28;20026;-69
2022/07/06 13:43:38;;;;;;;3.97;1.83;;;;;;;;;;5008342;28;20539;-68
2022/07/06 13:46:03;;;;;;;5.20;1.57;;;;;;;;;;5007953;28;20554;-69
2022/07/06 13:48:29;;;;;;;5.32;2.03;;;;;;;;;;5007087;28;20615;-68
2022/07/06 13:50:54;;;;;;;3.22;1.25;;;;;;;;;;5002228;28;20380;-68
2022/07/06 13:53:19;;;;;;;7.10;1.67;;;;;;;;;;5010612;28;20044;-68
2022/07/06 13:55:44;;;;;;;6.57;1.98;;;;;;;;;;4997643;28;20034;-70
2022/07/06 13:58:10;;;;;;;2.80;1.50;;;;;;;;;;4999112;28;20026;-68
2022/07/06 14:00:35;;;;;;;4.97;1.60;;;;;;;;;;5001890;28;20061;-68
2022/07/06 14:03:00;;;;;;;4.27;1.40;;;;;;;;;;4999713;28;20033;-68
2022/07/06 14:05:27;;;;;;;3.73;1.30;;;;;;;;;;5000960;28;20116;-68
2022/07/06 14:07:52;;;;;;;3.67;1.10;;;;;;;;;;4998408;28;20089;-66
2022/07/06 14:10:18;;;;;;;3.77;1.43;;;;;;;;;;5002309;28;20432;-66
2022/07/06 14:12:43;;;;;;;2.55;1.40;;;;;;;;;;5000266;28;20033;-67
2022/07/06 14:15:08;;;;;;;2.70;1.38;;;;;;;;;;4993840;28;20030;-67
2022/07/06 14:17:33;;;;;;;5.32;1.48;;;;;;;;;;4997393;28;20201;-68
2022/07/06 14:19:58;;;;;;;7.10;1.90;;;;;;;;;;4993427;28;20022;-67
2022/07/06 14:22:24;;;;;;;6.80;1.40;;;;;;;;;;4997758;28;20135;-67
2022/07/06 14:24:49;;;;;;;3.20;1.90;;;;;;;;;;4996182;28;20022;-70
2022/07/06 14:27:14;;;;;;;3.37;1.83;;;;;;;;;;5002120;28;20037;-68
2022/07/06 14:29:39;;;;;;;2.25;1.50;;;;;;;;;;4999327;28;20424;-68
2022/07/06 14:32:04;;;;;;;3.80;1.52;;;;;;;;;;4998830;28;20034;-67
2022/07/06 14:34:29;;;;;;;3.40;1.90;;;;;;;;;;5001482;28;20035;-68
2022/07/06 14:36:55;;;;;;;3.75;1.85;;;;;;;;;;4995420;28;20464;-66
2022/07/06 14:39:20;;;;;;;7.22;1.85;;;;;;;;;;4997348;28;20471;-66
2022/07/06 14:41:45;;;;;;;3.53;1.87;;;;;;;;;;4997368;28;20160;-68